Sonic Adventure (DX): Overall Rankings

Records: Times | Rings | Scores | Races | Bosses | Freestyle
Leaders: Times | Rings | Scores | Races | Bosses | Freestyle | Overall
Rank Player Percent Points Order Asc Date
1 Sonicspeedruner 98.4% 239 12-18-14
2 Gamepro011 97.5% 387 12-18-14
3 DarkPolarNight 96.4% 557 12-18-14
4 Jawzun 94.0% 940 12-18-14
5 Dashjump 92.0% 1248 12-18-14
6 DarkspinesSonic 91.2% 1381 12-18-14
7 Avento128bits 90.7% 1461 12-18-14
8 ike6252 90.6% 1481 12-18-14
9 F-Man 86.4% 2133 12-18-14
10 yoshifan 84.2% 2490 12-18-14
11 Coolfansonic 83.9% 2539 12-18-14
12 frankoredstrato 83.7% 2567 12-18-14
13 HyperSonic7701 82.7% 2716 12-18-14
14 francisco 82.6% 2732 12-18-14
15 Marth 82.3% 2787 12-18-14
16 PfoSonic 80.8% 3025 12-18-14
17 InferSaime 80.2% 3113 12-18-14
18 Paragod 80.2% 3121 12-18-14
19 THC98 78.7% 3352 12-18-14
20 Stefan 77.1% 3600 12-18-14
21 RPGnutter 75.0% 3938 12-18-14
22 bertin 74.7% 3979 12-18-14
23 sonicam 72.6% 4321 12-18-14
24 Combo 66.7% 5244 12-18-14
25 SkyLights 65.5% 5438 12-18-14
26 Diamond 63.5% 5752 12-18-14
27 GerbilSoft 61.3% 6107 12-18-14
28 Auriman1 61.2% 6112 12-18-14
29 OmegaDJ 61.2% 6116 12-18-14
30 magnum12 60.3% 6266 12-18-14
31 Dawid8404 60.2% 6273 12-18-14
32 Thorn 58.3% 6577 12-18-14
33 P1 Pause 58.1% 6606 12-18-14
34 mike89 56.8% 6810 12-18-14
35 Groudon199 54.8% 7123 12-18-14
36 Dave Cramer 54.8% 7131 12-18-14
37 chainchumper 54.3% 7208 12-18-14
38 Shadow Jacky 53.7% 7300 12-18-14
39 Parax 53.5% 7328 12-18-14
40 Psymar 48.4% 8132 12-18-14
41 Chao_Fan 46.7% 8400 12-18-14
42 Arch 46.4% 8460 12-18-14
43 mauserman 45.9% 8532 12-18-14
44 Quartz 45.5% 8594 12-18-14
45 teamblackarms 44.6% 8739 12-18-14
46 Psyknux 44.0% 8829 12-18-14
47 James_Bertolli 43.7% 8886 12-18-14
48 NintenDan 43.3% 8939 12-18-14
49 Webber3000 42.7% 9043 12-18-14
50 Turbos 42.5% 9076 12-18-14
51 Ring Rush 42.4% 9084 12-18-14
52 Fr3nZy 42.3% 9103 12-18-14
53 Cream147 42.3% 9106 12-18-14
54 videogamemaster777 42.2% 9121 12-18-14
55 Siavash Tazari 41.8% 9179 12-18-14
56 buddychaos0415 41.4% 9242 12-18-14
57 SadisticMystic 40.6% 9375 12-18-14
58 eggFL 39.9% 9479 12-18-14
59 Redd 39.2% 9585 12-18-14
60 SB737 38.3% 9724 12-18-14
61 drminus 37.8% 9811 12-18-14
62 supersonicfan 37.1% 9926 12-18-14
63 FuzZerd 35.9% 10110 12-18-14
64 elecmouse101 35.2% 10214 12-18-14
65 supersonic465 35.2% 10228 12-18-14
66 metanightmare22 33.6% 10469 12-18-14
67 Austinf 33.5% 10484 12-18-14
68 dabestgamer 33.5% 10494 12-18-14
69 Aitamen 33.5% 10496 12-18-14
70 Cyan Ryan 33.3% 10518 12-18-14
71 MiStEr_ShAoLiN 33.2% 10532 12-18-14
72 itsPersonnal 32.2% 10697 12-18-14
73 Cybrax 31.4% 10816 12-18-14
74 Andrea Ritsu 31.3% 10841 12-18-14
75 SilvertheAlmighty 31.2% 10856 12-18-14
76 danieldude 30.7% 10927 12-18-14
77 VMU Player Banned 29.3% 11159 12-18-14
78 Staf 28.8% 11235 12-18-14
79 SonicDash1999 28.7% 11253 12-18-14
80 Omega Rafael Santos 28.7% 11254 12-18-14
81 The T 28.5% 11277 12-18-14
82 EngiNerd 28.2% 11322 12-18-14
83 lordmetalsonic 27.5% 11432 12-18-14
84 Hipertails12 27.0% 11510 12-18-14
85 welldooder64 26.9% 11532 12-18-14
86 GreatStar 26.8% 11550 12-18-14
87 Sondow 26.8% 11551 12-18-14
88 The Great Lord Mick 26.5% 11587 12-18-14
89 LinksDarkArrows 26.3% 11618 12-18-14
90 Skylace 25.4% 11761 12-18-14
91 Mastakirby 24.9% 11847 12-18-14
92 Rolken 23.9% 12007 12-18-14
93 Xia 22.3% 12255 12-18-14
94 Kogen Player Banned 22.2% 12266 12-18-14
95 Spinballwizard 22.1% 12287 12-18-14
96 Cutiefox 21.7% 12357 12-18-14
97 f0rever_zer0 21.6% 12364 12-18-14
98 Don 21.6% 12369 12-18-14
99 Miles9999 21.5% 12389 12-18-14
100 Nimrod 21.4% 12397 12-18-14
101 andres430 20.8% 12488 12-18-14
102 Cruizer 20.7% 12503 12-18-14
103 iSonicKid2K 20.6% 12530 12-18-14
104 SADXTryHard 20.2% 12591 12-18-14
105 GarnetPrincess 19.8% 12651 12-18-14
106 knuckles_sonic8 19.1% 12757 12-18-14
107 Team_Yoshi 18.4% 12875 12-18-14
108 The Knuckles Chao 18.3% 12885 12-18-14
109 FoxBoy 18.0% 12942 12-18-14
110 Termon 17.9% 12944 12-18-14
111 KinkyCadence 17.9% 12955 12-18-14
112 Sonic Singularity 15.9% 13275 12-18-14
113 Pokemonmaster888 15.8% 13279 12-18-14
114 BigAL49 14.9% 13431 12-18-14
115 SilverSonic 14.7% 13455 12-18-14
116 MPit08 14.6% 13471 12-18-14
117 Mo Player Banned 14.3% 13525 12-18-14
118 HyperSonic64 13.6% 13623 12-18-14
119 Cod4Scopes 13.6% 13626 12-18-14
120 booo95 13.5% 13645 12-18-14
121 Chawkk 13.3% 13672 12-18-14
122 SuperSonic101 13.2% 13698 12-18-14
123 Maxinfamily 13.0% 13731 12-18-14
124 Hunters13 12.9% 13742 12-18-14
125 Kanimayo_Jp 12.7% 13776 12-18-14
126 BrokenArthritis 12.6% 13795 12-18-14
127 PsyBorg 12.6% 13796 12-18-14
128 LilZero 12.5% 13803 12-18-14
129 Flying Fox 12.5% 13807 12-18-14
130 paulie9990 12.4% 13819 12-18-14
131 sonicspeed 11.9% 13892 12-18-14
132 douglas 11.7% 13930 12-18-14
133 Matt_TY 11.5% 13967 12-18-14
134 Therio 11.4% 13978 12-18-14
135 Cooljay 10.8% 14069 12-18-14
136 joecoolgames 10.7% 14086 12-18-14
137 SeaWolf 10.7% 14087 12-18-14
138 welshmoose05 10.1% 14179 12-18-14
139 TFEC Headshot 10.1% 14180 12-18-14
140 crazy1993 9.8% 14228 12-18-14
141 Mcshuggets 9.7% 14242 12-18-14
142 videogamer1014 9.5% 14272 12-18-14
143 imazor017 9.3% 14314 12-18-14
144 SonicAD 9.2% 14318 12-18-14
145 nuckrieg 9.2% 14322 12-18-14
146 niscool 9.2% 14328 12-18-14
147 SirTobbii 9.2% 14332 12-18-14
148 superjupi 9.0% 14359 12-18-14
149 Shadowthegreat 9.0% 14361 12-18-14
150 SaviourDC 8.7% 14409 12-18-14
151 iarebored 8.6% 14416 12-18-14
152 sonamyfan666 8.6% 14423 12-18-14
153 SonicKnuckles 8.4% 14444 12-18-14
154 Werey 8.3% 14460 12-18-14
155 adf 8.1% 14496 12-18-14
156 Megaman EXE565 8.0% 14522 12-18-14
157 ArcticDragon 7.9% 14535 12-18-14
158 Platformer 7.6% 14578 12-18-14
159 timpkmn89 7.4% 14610 12-18-14
160 wheatrich 7.3% 14617 12-18-14
161 Swift Hobo 7.3% 14622 12-18-14
162 Rickyman48 7.2% 14646 12-18-14
163 KitsuneYamaro 7.0% 14679 12-18-14
164 Triseena 6.8% 14705 12-18-14
165 CyberShadow 6.6% 14740 12-18-14
166 dShadow 6.5% 14744 12-18-14
167 slade23 6.5% 14750 12-18-14
168 Starlight Sable 6.5% 14752 12-18-14
169 IsisDazs 6.4% 14774 12-18-14
170 BlankTH 6.2% 14794 12-18-14
171 SonicWinDX 6.2% 14795 12-18-14
172 Monkeh 5.9% 14844 12-18-14
173 Richied 5.9% 14849 12-18-14
174 DaDude 5.8% 14867 12-18-14
175 sonicd5 5.6% 14892 12-18-14
176 Zip 5.6% 14894 12-18-14
177 tal39h 5.2% 14950 12-18-14
178 Kirbymon30 5.1% 14971 12-18-14
179 soniccoloursunleashed 4.9% 14999 12-18-14
180 Drflash55 4.9% 15000 12-18-14
181 neaolas 4.8% 15025 12-18-14
181 Bass 4.8% 15025 12-18-14
183 superiorsonic 4.7% 15043 12-18-14
184 UninspiredUsername 4.6% 15046 12-18-14
185 Sonicsuperstar1 4.6% 15051 12-18-14
186 zapp 4.6% 15052 12-18-14
187 gamefreak1292 4.5% 15070 12-18-14
188 SonicU260 4.2% 15113 12-18-14
189 Chaos_Overlord 4.2% 15115 12-18-14
190 TakaRikka 4.1% 15137 12-18-14
191 Valfore 4.0% 15140 12-18-14
192 ShinigamiMachine 3.8% 15177 12-18-14
193 Regano1000 3.8% 15182 12-18-14
194 MK 3.6% 15206 12-18-14
195 Ace747 3.6% 15209 12-18-14
196 Illidan 3.2% 15268 12-18-14
197 Venick409 3.1% 15282 12-18-14
198 Brian_pso 3.1% 15286 12-18-14
198 Sithwarrior26 3.1% 15286 12-18-14
200 ingx24 3.0% 15305 12-18-14
201 TheChaosEmeraIds 3.0% 15309 12-18-14
202 SkyBon 2.9% 15318 12-18-14
203 Nickson98 2.9% 15321 12-18-14
204 Fozer 2.8% 15332 12-18-14
205 Colomb_30 2.8% 15338 12-18-14
206 FSSRandomvids 2.8% 15343 12-18-14
207 sonic29887 2.7% 15346 12-18-14
208 TheUltraBlur 2.7% 15357 12-18-14
209 1stKirbyever 2.6% 15365 12-18-14
210 Th4tN1nj4Turtl3 2.4% 15400 12-18-14
211 Cort_pso 2.3% 15409 12-18-14
212 ieatatsonic 2.3% 15412 12-18-14
213 Mariosonic15 2.3% 15419 12-18-14
214 Doom-9 2.3% 15420 12-18-14
215 SuperSonic71087 2.2% 15432 12-18-14
216 MStitomix 2.2% 15437 12-18-14
217 HermitHelmet 2.1% 15438 12-18-14
218 Artie 2.1% 15452 12-18-14
219 Jose_15 2.0% 15463 12-18-14
220 a_moustache 1.9% 15473 12-18-14
221 Questionguy555 1.9% 15474 12-18-14
222 djmat 1.9% 15479 12-18-14
223 sonicandamy 1.7% 15505 12-18-14
224 LancexExWx 1.7% 15507 12-18-14
225 Heroes_Hater 1.7% 15508 12-18-14
226 son1cgu1tar 1.7% 15512 12-18-14
227 Paixii 1.7% 15514 12-18-14
228 BallzeH 1.6% 15530 12-18-14
229 Mankster101 1.5% 15534 12-18-14
230 BecauseWarAnvil 1.5% 15535 12-18-14
231 Jamixesa 1.5% 15539 12-18-14
232 SpiritDragon1995 1.5% 15548 12-18-14
232 Shanekilz 1.5% 15548 12-18-14
234 Crydio 1.4% 15550 12-18-14
235 ReuelBrony 1.4% 15558 12-18-14
236 stanski 1.4% 15563 12-18-14
237 Sonique Hedgehog 1.3% 15570 12-18-14
238 p0ker 1.3% 15579 12-18-14
239 Blue Infamy 1.2% 15581 12-18-14
240 ErrortheCucco 1.2% 15589 12-18-14
241 Arthas 1.2% 15591 12-18-14
242 Rikum22 1.2% 15592 12-18-14
243 sonic1001 1.1% 15600 12-18-14
244 WingedInsignia 1.1% 15604 12-18-14
245 syco1098 1.1% 15607 12-18-14
246 AJSIV 1.1% 15609 12-18-14
247 Sonic the Hedgehod16 1.1% 15610 12-18-14
248 Calfd 1.0% 15618 12-18-14
249 Mariobutch 1.0% 15621 12-18-14
250 BlackArmsShadow 1.0% 15627 12-18-14
251 themachoman202 0.9% 15631 12-18-14
252 shadowblast63 Player Banned 0.9% 15638 12-18-14
253 MastaToken 0.9% 15639 12-18-14
253 Fivavoa 0.9% 15639 12-18-14
255 Greham Adelphis 0.9% 15640 12-18-14
255 Ben1502 0.9% 15640 12-18-14
257 darkstarblaze 0.9% 15642 12-18-14
257 ptorflaxendrosis 0.9% 15642 12-18-14
257 Mr. Jones 0.9% 15642 12-18-14
260 arcfx1985 0.8% 15644 12-18-14
261 FlandreScarlet9999vr 0.8% 15648 12-18-14
262 Gvozdevik 0.8% 15650 12-18-14
263 Knuckles 0.8% 15651 12-18-14
264 KaM Mark MaK 0.8% 15657 12-18-14
265 BeeAwwb 0.8% 15658 12-18-14
266 ShadouZaHejjihoggu 0.7% 15664 12-18-14
267 Sonic62 0.7% 15670 12-18-14
268 darkersupershadic 0.7% 15672 12-18-14
269 Sogeking 0.7% 15674 12-18-14
270 SonicK100 0.6% 15677 12-18-14
270 Sarger001 0.6% 15677 12-18-14
270 Shadygamerfreak 0.6% 15677 12-18-14
270 Got4n 0.6% 15677 12-18-14
274 dragondragon18 0.6% 15678 12-18-14
275 Grady219 0.6% 15679 12-18-14
276 Jawaah 0.6% 15682 12-18-14
277 Antek 0.6% 15686 12-18-14
278 Klaus 0.6% 15688 12-18-14
279 SilverK 0.6% 15689 12-18-14
280 BioShadow 0.5% 15693 12-18-14
281 SpinDashMaster 0.5% 15698 12-18-14
282 Videogamer123 0.5% 15699 12-18-14
283 oTaiIilLsS 0.4% 15712 12-18-14
283 Egor305 0.4% 15712 12-18-14
285 isaihtb11 0.4% 15713 12-18-14
286 OhNoes! 0.4% 15714 12-18-14
287 Mad Andy 0.4% 15715 12-18-14
288 zaktu40 0.4% 15716 12-18-14
289 gaara1234 0.4% 15719 12-18-14
290 gamed00d 0.4% 15720 12-18-14
291 Mister_Slick 0.3% 15730 12-18-14
292 Sonic06Fan 0.3% 15732 12-18-14
293 Rush Hero 0.3% 15733 12-18-14
294 SonicMega167 0.3% 15736 12-18-14
295 Iwannabelink 0.2% 15738 12-18-14
296 sonknuck23 0.2% 15742 12-18-14
297 gamer1245 0.2% 15747 12-18-14
298 DanielTheFalcon 0.2% 15749 12-18-14
299 Burningskull123 0.1% 15755 12-18-14
300 Sonicontherun 0.1% 15765 12-18-14
301 Lil_Dude 0.1% 15769 12-18-14
302 antiwwe 0.0% 15771 12-18-14
303 Genuine Hedgehog 0.0% 15775 12-18-14
304 Cbwade15 0.0% 15776 12-18-14
305 Tyrouble 0.0% 15778 12-18-14
306 MegabombBlade 0.0% 15785 12-18-14
306 Tran Sonic Fan Player Banned 0.0% 15785 12-18-14
306 Over 0.0% 15785 12-18-14
306 sdj6707 Player Banned 0.0% 15785 12-18-14
306 neji_hyuuga 0.0% 15785 12-18-14

This page is using the New Data Table System. [FUTURE]

Game ID: 3 | Category ID: 10
Hits: 61,332 | Hits This Month: 249 | DB Calls: 21 | Mem Usage: 5.42 MB | Time: 0.22s | Printable

The Sonic Center v3.9
Copyright 2003-2011 by The Sonic Center Team.